sensor_id;sensor_type;location;lat;lon;timestamp;pressure;altitude;pressure_sealevel;temperature;humidity
9969;BME280;5025;48.890;9.278;2023-06-10T00:01:45;98361.63;;;20.60;48.86
9969;BME280;5025;48.890;9.278;2023-06-10T00:04:13;98359.00;;;20.55;49.14
9969;BME280;5025;48.890;9.278;2023-06-10T00:06:39;98356.47;;;20.45;49.10
9969;BME280;5025;48.890;9.278;2023-06-10T00:09:05;98357.91;;;20.42;49.85
9969;BME280;5025;48.890;9.278;2023-06-10T00:11:35;98361.75;;;20.41;49.91
9969;BME280;5025;48.890;9.278;2023-06-10T00:14:01;98360.72;;;20.37;50.42
9969;BME280;5025;48.890;9.278;2023-06-10T00:16:26;98355.84;;;20.34;50.48
9969;BME280;5025;48.890;9.278;2023-06-10T00:18:52;98350.16;;;20.30;50.60
9969;BME280;5025;48.890;9.278;2023-06-10T00:21:17;98362.22;;;20.29;50.57
9969;BME280;5025;48.890;9.278;2023-06-10T00:23:44;98362.53;;;20.28;50.60
9969;BME280;5025;48.890;9.278;2023-06-10T00:26:09;98357.06;;;20.28;50.30
9969;BME280;5025;48.890;9.278;2023-06-10T00:28:34;98359.50;;;20.29;50.34
9969;BME280;5025;48.890;9.278;2023-06-10T00:31:00;98363.16;;;20.24;50.23
9969;BME280;5025;48.890;9.278;2023-06-10T00:33:25;98361.13;;;20.16;50.34
9969;BME280;5025;48.890;9.278;2023-06-10T00:35:50;98360.69;;;20.09;50.67
9969;BME280;5025;48.890;9.278;2023-06-10T00:38:15;98362.94;;;20.07;50.90
9969;BME280;5025;48.890;9.278;2023-06-10T00:40:41;98361.69;;;19.99;50.94
9969;BME280;5025;48.890;9.278;2023-06-10T00:43:07;98361.50;;;19.96;51.00
9969;BME280;5025;48.890;9.278;2023-06-10T00:45:32;98360.44;;;19.92;51.14
9969;BME280;5025;48.890;9.278;2023-06-10T00:47:59;98353.13;;;19.87;51.18
9969;BME280;5025;48.890;9.278;2023-06-10T00:50:25;98355.38;;;19.85;51.32
9969;BME280;5025;48.890;9.278;2023-06-10T00:52:50;98364.19;;;19.82;51.18
9969;BME280;5025;48.890;9.278;2023-06-10T00:55:16;98357.06;;;19.81;51.25
9969;BME280;5025;48.890;9.278;2023-06-10T00:57:44;98353.53;;;19.80;51.22
9969;BME280;5025;48.890;9.278;2023-06-10T01:00:10;98363.34;;;19.81;51.05
9969;BME280;5025;48.890;9.278;2023-06-10T01:02:36;98362.25;;;19.82;51.13
9969;BME280;5025;48.890;9.278;2023-06-10T01:05:01;98363.34;;;19.81;51.21
9969;BME280;5025;48.890;9.278;2023-06-10T01:07:33;98355.97;;;19.82;51.40
9969;BME280;5025;48.890;9.278;2023-06-10T01:10:11;98361.22;;;19.78;51.64
9969;BME280;5025;48.890;9.278;2023-06-10T01:12:47;98357.94;;;19.76;51.58
9969;BME280;5025;48.890;9.278;2023-06-10T01:15:16;98350.31;;;19.73;51.75
9969;BME280;5025;48.890;9.278;2023-06-10T01:20:19;98351.63;;;19.62;51.81
9969;BME280;5025;48.890;9.278;2023-06-10T01:22:44;98353.00;;;19.59;52.01
9969;BME280;5025;48.890;9.278;2023-06-10T01:25:10;98351.72;;;19.57;52.23
9969;BME280;5025;48.890;9.278;2023-06-10T01:27:37;98347.94;;;19.52;52.33
9969;BME280;5025;48.890;9.278;2023-06-10T01:30:11;98343.34;;;19.48;52.65
9969;BME280;5025;48.890;9.278;2023-06-10T01:32:44;98346.97;;;19.43;52.91
9969;BME280;5025;48.890;9.278;2023-06-10T01:35:10;98348.06;;;19.42;52.84
9969;BME280;5025;48.890;9.278;2023-06-10T01:37:38;98354.16;;;19.39;53.17
9969;BME280;5025;48.890;9.278;2023-06-10T01:40:05;98358.31;;;19.37;53.42
9969;BME280;5025;48.890;9.278;2023-06-10T01:42:31;98358.06;;;19.33;53.50
9969;BME280;5025;48.890;9.278;2023-06-10T01:44:57;98358.06;;;19.33;53.66
9969;BME280;5025;48.890;9.278;2023-06-10T01:47:22;98354.84;;;19.31;53.61
9969;BME280;5025;48.890;9.278;2023-06-10T01:49:48;98360.91;;;19.28;53.86
9969;BME280;5025;48.890;9.278;2023-06-10T01:52:13;98359.56;;;19.25;54.01
9969;BME280;5025;48.890;9.278;2023-06-10T01:54:38;98365.91;;;19.21;54.03
9969;BME280;5025;48.890;9.278;2023-06-10T01:57:04;98368.16;;;19.19;54.24
9969;BME280;5025;48.890;9.278;2023-06-10T01:59:31;98360.53;;;19.15;54.25
9969;BME280;5025;48.890;9.278;2023-06-10T02:01:56;98357.28;;;19.13;54.33
9969;BME280;5025;48.890;9.278;2023-06-10T02:04:21;98362.22;;;19.11;54.31
9969;BME280;5025;48.890;9.278;2023-06-10T02:06:47;98358.16;;;19.09;54.32
9969;BME280;5025;48.890;9.278;2023-06-10T02:09:12;98371.31;;;19.07;54.36
9969;BME280;5025;48.890;9.278;2023-06-10T02:11:37;98361.78;;;19.04;54.15
9969;BME280;5025;48.890;9.278;2023-06-10T02:14:02;98371.91;;;19.04;54.07
9969;BME280;5025;48.890;9.278;2023-06-10T02:16:28;98372.19;;;19.02;53.89
9969;BME280;5025;48.890;9.278;2023-06-10T02:18:53;98364.28;;;19.01;53.83
9969;BME280;5025;48.890;9.278;2023-06-10T02:21:18;98362.38;;;19.01;53.68
9969;BME280;5025;48.890;9.278;2023-06-10T02:23:43;98361.53;;;19.01;53.46
9969;BME280;5025;48.890;9.278;2023-06-10T02:26:09;98363.47;;;19.00;53.36
9969;BME280;5025;48.890;9.278;2023-06-10T02:28:34;98369.75;;;19.01;53.34
9969;BME280;5025;48.890;9.278;2023-06-10T02:30:59;98369.25;;;18.98;53.30
9969;BME280;5025;48.890;9.278;2023-06-10T02:33:25;98378.56;;;18.97;53.17
9969;BME280;5025;48.890;9.278;2023-06-10T02:35:52;98372.56;;;18.95;53.04
9969;BME280;5025;48.890;9.278;2023-06-10T02:38:17;98377.53;;;18.93;53.05
9969;BME280;5025;48.890;9.278;2023-06-10T02:40:43;98380.03;;;18.90;53.17
9969;BME280;5025;48.890;9.278;2023-06-10T02:43:09;98378.16;;;18.85;53.28
9969;BME280;5025;48.890;9.278;2023-06-10T02:45:34;98381.16;;;18.84;53.34
9969;BME280;5025;48.890;9.278;2023-06-10T02:47:59;98384.47;;;18.80;53.44
9969;BME280;5025;48.890;9.278;2023-06-10T02:50:24;98386.19;;;18.76;53.54
9969;BME280;5025;48.890;9.278;2023-06-10T02:52:50;98391.19;;;18.69;53.96
9969;BME280;5025;48.890;9.278;2023-06-10T02:55:15;98396.44;;;18.66;54.30
9969;BME280;5025;48.890;9.278;2023-06-10T02:57:40;98393.16;;;18.63;54.51
9969;BME280;5025;48.890;9.278;2023-06-10T03:00:06;98392.66;;;18.61;54.58
9969;BME280;5025;48.890;9.278;2023-06-10T03:02:36;98397.59;;;18.59;54.69
9969;BME280;5025;48.890;9.278;2023-06-10T03:05:02;98390.84;;;18.52;54.92
9969;BME280;5025;48.890;9.278;2023-06-10T03:07:27;98391.44;;;18.49;55.07
9969;BME280;5025;48.890;9.278;2023-06-10T03:09:52;98396.44;;;18.41;55.25
9969;BME280;5025;48.890;9.278;2023-06-10T03:12:18;98388.88;;;18.33;55.43
9969;BME280;5025;48.890;9.278;2023-06-10T03:14:43;98391.13;;;18.26;55.60
9969;BME280;5025;48.890;9.278;2023-06-10T03:17:08;98400.44;;;18.25;55.74
9969;BME280;5025;48.890;9.278;2023-06-10T03:19:34;98402.41;;;18.19;55.83
9969;BME280;5025;48.890;9.278;2023-06-10T03:22:09;98407.06;;;18.19;56.07
9969;BME280;5025;48.890;9.278;2023-06-10T03:24:35;98406.50;;;18.17;55.94
9969;BME280;5025;48.890;9.278;2023-06-10T03:27:01;98408.72;;;18.15;56.13
9969;BME280;5025;48.890;9.278;2023-06-10T03:29:27;98415.84;;;18.16;56.06
9969;BME280;5025;48.890;9.278;2023-06-10T03:31:52;98410.66;;;18.14;56.15
9969;BME280;5025;48.890;9.278;2023-06-10T03:34:17;98415.56;;;18.12;56.14
9969;BME280;5025;48.890;9.278;2023-06-10T03:36:42;98415.34;;;18.08;56.16
9969;BME280;5025;48.890;9.278;2023-06-10T03:39:08;98419.16;;;18.07;56.13
9969;BME280;5025;48.890;9.278;2023-06-10T03:41:34;98417.00;;;18.04;56.33
9969;BME280;5025;48.890;9.278;2023-06-10T03:43:59;98420.59;;;18.05;56.42
9969;BME280;5025;48.890;9.278;2023-06-10T03:46:25;98419.75;;;18.04;56.44
9969;BME280;5025;48.890;9.278;2023-06-10T03:48:50;98418.13;;;18.03;56.46
9969;BME280;5025;48.890;9.278;2023-06-10T03:51:16;98426.63;;;18.02;56.60
9969;BME280;5025;48.890;9.278;2023-06-10T03:53:41;98422.53;;;17.99;56.77
9969;BME280;5025;48.890;9.278;2023-06-10T03:56:06;98427.19;;;17.99;56.83
9969;BME280;5025;48.890;9.278;2023-06-10T03:58:32;98432.66;;;17.99;56.75
9969;BME280;5025;48.890;9.278;2023-06-10T04:00:57;98433.47;;;17.99;56.77
9969;BME280;5025;48.890;9.278;2023-06-10T04:03:22;98436.19;;;17.99;56.80
9969;BME280;5025;48.890;9.278;2023-06-10T04:05:48;98429.38;;;17.97;56.89
9969;BME280;5025;48.890;9.278;2023-06-10T04:08:13;98427.50;;;17.92;57.08
9969;BME280;5025;48.890;9.278;2023-06-10T04:10:38;98429.44;;;17.91;57.23
9969;BME280;5025;48.890;9.278;2023-06-10T04:13:03;98432.44;;;17.90;57.34
9969;BME280;5025;48.890;9.278;2023-06-10T04:15:29;98429.44;;;17.91;57.50
9969;BME280;5025;48.890;9.278;2023-06-10T04:17:57;98439.53;;;17.91;57.47
9969;BME280;5025;48.890;9.278;2023-06-10T04:20:22;98431.34;;;17.91;57.66
9969;BME280;5025;48.890;9.278;2023-06-10T04:22:48;98430.81;;;17.89;57.56
9969;BME280;5025;48.890;9.278;2023-06-10T04:25:13;98443.66;;;17.88;57.97
9969;BME280;5025;48.890;9.278;2023-06-10T04:27:38;98437.09;;;17.84;58.05
9969;BME280;5025;48.890;9.278;2023-06-10T04:30:04;98439.88;;;17.79;58.41
9969;BME280;5025;48.890;9.278;2023-06-10T04:32:30;98451.66;;;17.74;59.01
9969;BME280;5025;48.890;9.278;2023-06-10T04:34:55;98444.31;;;17.70;59.29
9969;BME280;5025;48.890;9.278;2023-06-10T04:37:21;98450.84;;;17.69;59.61
9969;BME280;5025;48.890;9.278;2023-06-10T04:39:46;98450.06;;;17.68;59.75
9969;BME280;5025;48.890;9.278;2023-06-10T04:42:12;98448.97;;;17.69;59.94
9969;BME280;5025;48.890;9.278;2023-06-10T04:44:37;98452.22;;;17.71;60.19
9969;BME280;5025;48.890;9.278;2023-06-10T04:47:04;98447.84;;;17.70;60.40
9969;BME280;5025;48.890;9.278;2023-06-10T04:49:29;98454.94;;;17.71;60.59
9969;BME280;5025;48.890;9.278;2023-06-10T04:51:55;98453.56;;;17.74;60.75
9969;BME280;5025;48.890;9.278;2023-06-10T04:54:20;98456.31;;;17.74;61.03
9969;BME280;5025;48.890;9.278;2023-06-10T04:56:45;98458.47;;;17.77;60.97
9969;BME280;5025;48.890;9.278;2023-06-10T04:59:11;98460.06;;;17.78;61.16
9969;BME280;5025;48.890;9.278;2023-06-10T05:01:37;98462.25;;;17.81;61.10
9969;BME280;5025;48.890;9.278;2023-06-10T05:04:02;98464.69;;;17.83;61.31
9969;BME280;5025;48.890;9.278;2023-06-10T05:06:27;98458.13;;;17.84;61.19
9969;BME280;5025;48.890;9.278;2023-06-10T05:08:53;98469.88;;;17.89;61.27
9969;BME280;5025;48.890;9.278;2023-06-10T05:11:18;98454.25;;;17.95;61.23
9969;BME280;5025;48.890;9.278;2023-06-10T05:13:43;98456.69;;;17.97;61.30
9969;BME280;5025;48.890;9.278;2023-06-10T05:16:09;98467.06;;;18.00;61.36
9969;BME280;5025;48.890;9.278;2023-06-10T05:18:34;98466.47;;;18.03;61.52
9969;BME280;5025;48.890;9.278;2023-06-10T05:21:01;98465.91;;;18.06;61.07
9969;BME280;5025;48.890;9.278;2023-06-10T05:23:26;98454.69;;;18.07;61.36
9969;BME280;5025;48.890;9.278;2023-06-10T05:25:51;98459.88;;;18.09;61.33
9969;BME280;5025;48.890;9.278;2023-06-10T05:28:16;98457.69;;;18.11;61.64
9969;BME280;5025;48.890;9.278;2023-06-10T05:30:42;98467.22;;;18.14;61.41
9969;BME280;5025;48.890;9.278;2023-06-10T05:33:07;98472.09;;;18.17;61.31
9969;BME280;5025;48.890;9.278;2023-06-10T05:35:32;98469.91;;;18.19;61.42
9969;BME280;5025;48.890;9.278;2023-06-10T05:37:58;98473.69;;;18.23;61.45
9969;BME280;5025;48.890;9.278;2023-06-10T05:40:23;98470.66;;;18.30;61.37
9969;BME280;5025;48.890;9.278;2023-06-10T05:42:48;98472.53;;;18.34;61.45
9969;BME280;5025;48.890;9.278;2023-06-10T05:45:14;98476.84;;;18.40;61.39
9969;BME280;5025;48.890;9.278;2023-06-10T05:47:39;98474.84;;;18.46;61.08
9969;BME280;5025;48.890;9.278;2023-06-10T05:50:05;98477.53;;;18.51;61.29
9969;BME280;5025;48.890;9.278;2023-06-10T05:52:33;98476.16;;;18.54;61.14
9969;BME280;5025;48.890;9.278;2023-06-10T05:54:58;98485.13;;;18.59;60.90
9969;BME280;5025;48.890;9.278;2023-06-10T05:57:24;98488.09;;;18.63;60.59
9969;BME280;5025;48.890;9.278;2023-06-10T05:59:49;98485.28;;;18.68;60.17
9969;BME280;5025;48.890;9.278;2023-06-10T06:02:15;98482.53;;;18.73;60.08
9969;BME280;5025;48.890;9.278;2023-06-10T06:04:40;98487.94;;;18.78;60.03
9969;BME280;5025;48.890;9.278;2023-06-10T06:07:05;98473.97;;;18.80;59.65
9969;BME280;5025;48.890;9.278;2023-06-10T06:09:30;98481.88;;;18.81;59.41
9969;BME280;5025;48.890;9.278;2023-06-10T06:11:56;98487.34;;;18.81;59.23
9969;BME280;5025;48.890;9.278;2023-06-10T06:14:21;98488.97;;;18.83;59.08
9969;BME280;5025;48.890;9.278;2023-06-10T06:16:46;98479.09;;;18.87;58.88
9969;BME280;5025;48.890;9.278;2023-06-10T06:19:12;98478.22;;;18.91;58.91
9969;BME280;5025;48.890;9.278;2023-06-10T06:21:37;98478.47;;;18.95;58.71
9969;BME280;5025;48.890;9.278;2023-06-10T06:24:02;98482.78;;;19.01;58.68
9969;BME280;5025;48.890;9.278;2023-06-10T06:26:28;98479.47;;;19.04;58.70
9969;BME280;5025;48.890;9.278;2023-06-10T06:28:53;98479.41;;;19.09;58.72
9969;BME280;5025;48.890;9.278;2023-06-10T06:31:18;98482.06;;;19.14;58.72
9969;BME280;5025;48.890;9.278;2023-06-10T06:33:43;98467.50;;;19.19;58.88
9969;BME280;5025;48.890;9.278;2023-06-10T06:36:09;98484.69;;;19.25;58.65
9969;BME280;5025;48.890;9.278;2023-06-10T06:38:34;98485.75;;;19.29;58.96
9969;BME280;5025;48.890;9.278;2023-06-10T06:40:59;98482.94;;;19.34;58.91
9969;BME280;5025;48.890;9.278;2023-06-10T06:43:29;98483.13;;;19.38;58.90
9969;BME280;5025;48.890;9.278;2023-06-10T06:45:56;98481.75;;;19.40;59.05
9969;BME280;5025;48.890;9.278;2023-06-10T06:48:21;98482.22;;;19.47;59.00
9969;BME280;5025;48.890;9.278;2023-06-10T06:50:47;98482.13;;;19.52;58.86
9969;BME280;5025;48.890;9.278;2023-06-10T06:53:12;98483.69;;;19.59;58.95
9969;BME280;5025;48.890;9.278;2023-06-10T06:55:37;98484.94;;;19.66;58.80
9969;BME280;5025;48.890;9.278;2023-06-10T06:58:02;98484.56;;;19.73;58.69
9969;BME280;5025;48.890;9.278;2023-06-10T07:00:29;98485.34;;;19.79;59.15
9969;BME280;5025;48.890;9.278;2023-06-10T07:02:54;98491.03;;;19.82;58.98
9969;BME280;5025;48.890;9.278;2023-06-10T07:05:20;98483.88;;;19.86;58.79
9969;BME280;5025;48.890;9.278;2023-06-10T07:07:45;98491.41;;;19.95;59.02
9969;BME280;5025;48.890;9.278;2023-06-10T07:10:10;98490.81;;;19.98;59.03
9969;BME280;5025;48.890;9.278;2023-06-10T07:12:36;98488.28;;;20.01;58.84
9969;BME280;5025;48.890;9.278;2023-06-10T07:15:01;98486.28;;;20.07;58.89
9969;BME280;5025;48.890;9.278;2023-06-10T07:17:26;98491.66;;;20.12;58.71
9969;BME280;5025;48.890;9.278;2023-06-10T07:19:52;98488.88;;;20.17;58.95
9969;BME280;5025;48.890;9.278;2023-06-10T07:22:17;98494.75;;;20.24;58.81
9969;BME280;5025;48.890;9.278;2023-06-10T07:24:42;98489.81;;;20.27;58.71
9969;BME280;5025;48.890;9.278;2023-06-10T07:27:08;98489.72;;;20.32;58.60
9969;BME280;5025;48.890;9.278;2023-06-10T07:29:33;98490.66;;;20.41;58.61
9969;BME280;5025;48.890;9.278;2023-06-10T07:32:02;98487.00;;;20.46;58.33
9969;BME280;5025;48.890;9.278;2023-06-10T07:34:27;98482.03;;;20.48;58.45
9969;BME280;5025;48.890;9.278;2023-06-10T07:36:52;98486.00;;;20.55;58.30
9969;BME280;5025;48.890;9.278;2023-06-10T07:39:18;98487.03;;;20.59;58.33
9969;BME280;5025;48.890;9.278;2023-06-10T07:41:43;98485.06;;;20.65;58.27
9969;BME280;5025;48.890;9.278;2023-06-10T07:44:08;98483.31;;;20.69;58.09
9969;BME280;5025;48.890;9.278;2023-06-10T07:46:33;98490.63;;;20.74;58.33
9969;BME280;5025;48.890;9.278;2023-06-10T07:48:59;98482.31;;;20.79;58.17
9969;BME280;5025;48.890;9.278;2023-06-10T07:51:24;98486.28;;;20.87;58.02
9969;BME280;5025;48.890;9.278;2023-06-10T07:53:49;98474.72;;;20.90;57.97
9969;BME280;5025;48.890;9.278;2023-06-10T07:56:14;98477.03;;;20.97;58.00
9969;BME280;5025;48.890;9.278;2023-06-10T07:58:40;98481.00;;;21.04;57.94
9969;BME280;5025;48.890;9.278;2023-06-10T08:01:05;98479.47;;;21.12;57.80
9969;BME280;5025;48.890;9.278;2023-06-10T08:03:30;98478.56;;;21.17;57.94
9969;BME280;5025;48.890;9.278;2023-06-10T08:05:56;98473.44;;;21.24;57.56
9969;BME280;5025;48.890;9.278;2023-06-10T08:08:21;98472.53;;;21.28;57.57
9969;BME280;5025;48.890;9.278;2023-06-10T08:10:46;98474.03;;;21.35;57.80
9969;BME280;5025;48.890;9.278;2023-06-10T08:13:12;98472.50;;;21.42;57.36
9969;BME280;5025;48.890;9.278;2023-06-10T08:15:37;98466.03;;;21.52;57.13
9969;BME280;5025;48.890;9.278;2023-06-10T08:18:02;98461.44;;;21.61;57.22
9969;BME280;5025;48.890;9.278;2023-06-10T08:20:28;98459.66;;;21.65;57.03
9969;BME280;5025;48.890;9.278;2023-06-10T08:22:53;98462.81;;;21.73;56.96
9969;BME280;5025;48.890;9.278;2023-06-10T08:25:18;98463.81;;;21.77;56.85
9969;BME280;5025;48.890;9.278;2023-06-10T08:27:44;98461.44;;;21.84;56.52
9969;BME280;5025;48.890;9.278;2023-06-10T08:30:09;98453.41;;;21.88;56.74
9969;BME280;5025;48.890;9.278;2023-06-10T08:32:36;98458.44;;;21.94;56.27
9969;BME280;5025;48.890;9.278;2023-06-10T08:35:01;98455.69;;;21.94;56.13
9969;BME280;5025;48.890;9.278;2023-06-10T08:37:26;98453.66;;;22.00;56.04
9969;BME280;5025;48.890;9.278;2023-06-10T08:39:52;98453.38;;;22.10;55.90
9969;BME280;5025;48.890;9.278;2023-06-10T08:42:33;98450.25;;;22.26;54.97
9969;BME280;5025;48.890;9.278;2023-06-10T08:45:00;98448.59;;;22.38;53.60
9969;BME280;5025;48.890;9.278;2023-06-10T08:47:29;98456.56;;;22.49;53.83
9969;BME280;5025;48.890;9.278;2023-06-10T08:49:56;98452.22;;;22.56;53.53
9969;BME280;5025;48.890;9.278;2023-06-10T08:52:27;98449.84;;;22.64;53.24
9969;BME280;5025;48.890;9.278;2023-06-10T08:54:57;98453.75;;;22.71;53.09
9969;BME280;5025;48.890;9.278;2023-06-10T08:57:24;98461.09;;;22.85;52.66
9969;BME280;5025;48.890;9.278;2023-06-10T08:59:50;98450.91;;;22.85;52.33
9969;BME280;5025;48.890;9.278;2023-06-10T09:02:18;98452.69;;;22.90;52.23
9969;BME280;5025;48.890;9.278;2023-06-10T09:04:46;98443.66;;;22.98;51.86
9969;BME280;5025;48.890;9.278;2023-06-10T09:07:13;98449.50;;;23.05;51.19
9969;BME280;5025;48.890;9.278;2023-06-10T09:09:41;98442.91;;;23.15;51.17
9969;BME280;5025;48.890;9.278;2023-06-10T09:12:07;98445.84;;;23.27;50.89
9969;BME280;5025;48.890;9.278;2023-06-10T09:14:32;98452.53;;;23.35;50.43
9969;BME280;5025;48.890;9.278;2023-06-10T09:16:58;98449.59;;;23.40;50.24
9969;BME280;5025;48.890;9.278;2023-06-10T09:19:25;98440.56;;;23.49;50.10
9969;BME280;5025;48.890;9.278;2023-06-10T09:21:50;98442.50;;;23.57;49.44
9969;BME280;5025;48.890;9.278;2023-06-10T09:24:15;98442.00;;;23.63;49.11
9969;BME280;5025;48.890;9.278;2023-06-10T09:26:42;98434.88;;;23.71;49.23
9969;BME280;5025;48.890;9.278;2023-06-10T09:29:08;98445.91;;;23.80;49.08
9969;BME280;5025;48.890;9.278;2023-06-10T09:31:35;98436.50;;;23.90;49.03
9969;BME280;5025;48.890;9.278;2023-06-10T09:34:11;98444.47;;;24.00;48.53
9969;BME280;5025;48.890;9.278;2023-06-10T09:36:38;98445.75;;;24.11;48.80
9969;BME280;5025;48.890;9.278;2023-06-10T09:39:03;98442.78;;;24.25;48.38
9969;BME280;5025;48.890;9.278;2023-06-10T09:41:39;98433.84;;;24.37;48.35
9969;BME280;5025;48.890;9.278;2023-06-10T09:44:14;98436.56;;;24.46;47.96
9969;BME280;5025;48.890;9.278;2023-06-10T09:46:40;98432.34;;;24.57;47.88
9969;BME280;5025;48.890;9.278;2023-06-10T09:49:06;98431.84;;;24.64;47.57
9969;BME280;5025;48.890;9.278;2023-06-10T09:51:32;98438.78;;;24.70;47.57
9969;BME280;5025;48.890;9.278;2023-06-10T09:53:59;98429.50;;;24.75;47.45
9969;BME280;5025;48.890;9.278;2023-06-10T09:56:36;98431.75;;;24.81;46.99
9969;BME280;5025;48.890;9.278;2023-06-10T09:59:03;98433.19;;;24.87;46.83
9969;BME280;5025;48.890;9.278;2023-06-10T10:01:30;98434.94;;;24.92;46.30
9969;BME280;5025;48.890;9.278;2023-06-10T10:03:55;98430.66;;;25.03;46.03
9969;BME280;5025;48.890;9.278;2023-06-10T10:06:21;98435.69;;;25.10;46.02
9969;BME280;5025;48.890;9.278;2023-06-10T10:08:48;98425.38;;;25.19;46.00
9969;BME280;5025;48.890;9.278;2023-06-10T10:11:16;98421.75;;;25.28;45.80
9969;BME280;5025;48.890;9.278;2023-06-10T10:13:42;98417.66;;;25.34;45.59
9969;BME280;5025;48.890;9.278;2023-06-10T10:16:11;98421.84;;;25.40;45.22
9969;BME280;5025;48.890;9.278;2023-06-10T10:18:46;98412.84;;;25.52;44.91
9969;BME280;5025;48.890;9.278;2023-06-10T10:21:13;98415.66;;;25.64;44.84
9969;BME280;5025;48.890;9.278;2023-06-10T10:26:25;98407.28;;;25.73;44.65
9969;BME280;5025;48.890;9.278;2023-06-10T10:29:16;98404.78;;;25.80;44.39
9969;BME280;5025;48.890;9.278;2023-06-10T10:31:42;98408.28;;;25.89;44.15
9969;BME280;5025;48.890;9.278;2023-06-10T10:34:13;98404.81;;;25.92;43.92
9969;BME280;5025;48.890;9.278;2023-06-10T10:36:41;98401.88;;;25.98;43.74
9969;BME280;5025;48.890;9.278;2023-06-10T10:39:07;98400.50;;;26.04;43.34
9969;BME280;5025;48.890;9.278;2023-06-10T10:41:32;98398.44;;;26.13;43.20
9969;BME280;5025;48.890;9.278;2023-06-10T10:43:58;98400.34;;;26.21;42.67
9969;BME280;5025;48.890;9.278;2023-06-10T10:46:24;98390.19;;;26.25;42.06
9969;BME280;5025;48.890;9.278;2023-06-10T10:48:53;98395.88;;;26.29;41.55
9969;BME280;5025;48.890;9.278;2023-06-10T10:51:24;98402.41;;;26.37;41.06
9969;BME280;5025;48.890;9.278;2023-06-10T10:54:14;98404.53;;;26.52;40.73
9969;BME280;5025;48.890;9.278;2023-06-10T11:02:43;98387.41;;;26.71;40.04
9969;BME280;5025;48.890;9.278;2023-06-10T11:05:16;98384.72;;;26.87;40.04
9969;BME280;5025;48.890;9.278;2023-06-10T11:07:55;98381.25;;;27.02;39.67
9969;BME280;5025;48.890;9.278;2023-06-10T11:10:35;98379.41;;;27.07;39.25
9969;BME280;5025;48.890;9.278;2023-06-10T11:13:05;98381.94;;;27.12;38.90
9969;BME280;5025;48.890;9.278;2023-06-10T11:15:31;98378.00;;;27.25;38.91
9969;BME280;5025;48.890;9.278;2023-06-10T11:18:20;98377.66;;;27.39;38.96
9969;BME280;5025;48.890;9.278;2023-06-10T11:25:50;98374.47;;;27.53;38.38
9969;BME280;5025;48.890;9.278;2023-06-10T11:28:18;98381.53;;;27.50;38.76
9969;BME280;5025;48.890;9.278;2023-06-10T11:30:44;98369.16;;;27.48;38.60
9969;BME280;5025;48.890;9.278;2023-06-10T11:33:14;98376.06;;;27.54;38.53
9969;BME280;5025;48.890;9.278;2023-06-10T11:35:40;98375.16;;;27.62;38.46
9969;BME280;5025;48.890;9.278;2023-06-10T11:38:05;98377.75;;;27.71;38.38
9969;BME280;5025;48.890;9.278;2023-06-10T11:40:31;98368.28;;;27.72;38.20
9969;BME280;5025;48.890;9.278;2023-06-10T11:42:57;98374.19;;;27.70;37.93
9969;BME280;5025;48.890;9.278;2023-06-10T11:45:23;98369.41;;;27.71;37.61
9969;BME280;5025;48.890;9.278;2023-06-10T11:47:58;98365.69;;;27.79;37.36
9969;BME280;5025;48.890;9.278;2023-06-10T11:50:31;98367.50;;;27.87;37.53
9969;BME280;5025;48.890;9.278;2023-06-10T11:52:56;98361.47;;;27.98;37.24
9969;BME280;5025;48.890;9.278;2023-06-10T11:55:23;98367.13;;;28.01;37.41
9969;BME280;5025;48.890;9.278;2023-06-10T11:57:48;98362.81;;;28.04;37.31
9969;BME280;5025;48.890;9.278;2023-06-10T12:00:22;98364.06;;;28.06;37.18
9969;BME280;5025;48.890;9.278;2023-06-10T12:02:55;98364.00;;;28.19;36.81
9969;BME280;5025;48.890;9.278;2023-06-10T12:05:22;98352.38;;;28.29;36.86
9969;BME280;5025;48.890;9.278;2023-06-10T12:07:47;98355.31;;;28.36;36.66
9969;BME280;5025;48.890;9.278;2023-06-10T12:10:13;98355.44;;;28.40;36.21
9969;BME280;5025;48.890;9.278;2023-06-10T12:12:38;98348.53;;;28.34;36.38
9969;BME280;5025;48.890;9.278;2023-06-10T12:15:04;98351.47;;;28.25;36.01
9969;BME280;5025;48.890;9.278;2023-06-10T12:19:56;98354.88;;;28.18;35.88
9969;BME280;5025;48.890;9.278;2023-06-10T12:22:21;98343.50;;;28.23;36.00
9969;BME280;5025;48.890;9.278;2023-06-10T12:25:03;98344.75;;;28.26;35.66
9969;BME280;5025;48.890;9.278;2023-06-10T12:27:32;98346.13;;;28.32;35.67
9969;BME280;5025;48.890;9.278;2023-06-10T12:29:59;98345.03;;;28.37;35.17
9969;BME280;5025;48.890;9.278;2023-06-10T12:35:06;98343.03;;;28.53;34.75
9969;BME280;5025;48.890;9.278;2023-06-10T12:37:32;98342.63;;;28.67;34.38
9969;BME280;5025;48.890;9.278;2023-06-10T12:40:00;98335.59;;;28.73;34.65
9969;BME280;5025;48.890;9.278;2023-06-10T12:42:26;98344.66;;;28.70;34.20
9969;BME280;5025;48.890;9.278;2023-06-10T12:44:54;98345.31;;;28.64;34.60
9969;BME280;5025;48.890;9.278;2023-06-10T12:47:29;98345.47;;;28.55;34.84
9969;BME280;5025;48.890;9.278;2023-06-10T12:49:56;98338.31;;;28.54;34.68
9969;BME280;5025;48.890;9.278;2023-06-10T12:52:21;98344.22;;;28.52;34.48
9969;BME280;5025;48.890;9.278;2023-06-10T12:54:47;98346.28;;;28.55;34.47
9969;BME280;5025;48.890;9.278;2023-06-10T12:57:12;98345.66;;;28.62;34.57
9969;BME280;5025;48.890;9.278;2023-06-10T12:59:37;98334.28;;;28.67;34.34
9969;BME280;5025;48.890;9.278;2023-06-10T13:02:03;98333.19;;;28.72;34.20
9969;BME280;5025;48.890;9.278;2023-06-10T13:04:28;98336.22;;;28.83;34.15
9969;BME280;5025;48.890;9.278;2023-06-10T13:06:54;98343.94;;;28.89;33.72
9969;BME280;5025;48.890;9.278;2023-06-10T13:09:19;98342.50;;;28.95;33.80
9969;BME280;5025;48.890;9.278;2023-06-10T13:11:44;98333.84;;;29.01;33.71
9969;BME280;5025;48.890;9.278;2023-06-10T13:14:10;98335.38;;;28.98;33.68
9969;BME280;5025;48.890;9.278;2023-06-10T13:16:35;98332.09;;;28.92;33.64
9969;BME280;5025;48.890;9.278;2023-06-10T13:19:02;98328.94;;;28.94;33.32
9969;BME280;5025;48.890;9.278;2023-06-10T13:21:30;98332.31;;;29.03;33.34
9969;BME280;5025;48.890;9.278;2023-06-10T13:23:55;98328.34;;;29.20;33.33
9969;BME280;5025;48.890;9.278;2023-06-10T13:26:20;98323.59;;;29.40;33.38
9969;BME280;5025;48.890;9.278;2023-06-10T13:28:46;98333.41;;;29.54;32.82
9969;BME280;5025;48.890;9.278;2023-06-10T13:31:12;98324.38;;;29.60;32.97
9969;BME280;5025;48.890;9.278;2023-06-10T13:33:37;98314.16;;;29.64;32.64
9969;BME280;5025;48.890;9.278;2023-06-10T13:36:03;98314.66;;;29.70;32.61
9969;BME280;5025;48.890;9.278;2023-06-10T13:38:29;98317.13;;;29.75;32.51
9969;BME280;5025;48.890;9.278;2023-06-10T13:40:54;98315.84;;;29.89;32.33